createdAt,value
2018-02-20T00:02:18.613Z,4.01
2018-02-20T00:07:20.192Z,3.93
2018-02-20T00:12:22.533Z,3.77
2018-02-20T00:17:24.098Z,3.61
2018-02-20T00:22:26.432Z,3.43
2018-02-20T00:27:28.037Z,3.30
2018-02-20T00:32:29.383Z,3.14
2018-02-20T00:37:30.954Z,2.93
2018-02-20T00:42:32.531Z,2.85
2018-02-20T00:47:34.045Z,2.73
2018-02-20T00:52:35.652Z,2.73
2018-02-20T00:57:37.186Z,2.80
2018-02-20T01:02:38.738Z,2.81
2018-02-20T01:07:40.251Z,2.81
2018-02-20T01:12:42.531Z,2.71
2018-02-20T01:17:43.980Z,2.58
2018-02-20T01:22:45.499Z,2.45
2018-02-20T01:27:46.933Z,2.45
2018-02-20T01:32:49.230Z,2.39
2018-02-20T01:37:50.733Z,2.38
2018-02-20T01:42:52.309Z,2.30
2018-02-20T01:47:53.876Z,2.25
2018-02-20T01:52:55.282Z,2.19
2018-02-20T01:57:56.739Z,2.07
2018-02-20T02:02:58.295Z,2.05
2018-02-20T02:08:00.565Z,1.99
2018-02-20T02:13:01.951Z,2.04
2018-02-20T02:18:03.525Z,2.02
2018-02-20T02:23:04.912Z,1.98
2018-02-20T02:28:06.360Z,1.92
2018-02-20T02:33:07.889Z,1.80
2018-02-20T02:38:10.112Z,1.81
2018-02-20T02:43:11.665Z,1.64
2018-02-20T02:48:13.087Z,1.60
2018-02-20T02:53:23.090Z,1.63
2018-02-20T02:58:25.361Z,1.77
2018-02-20T03:03:26.895Z,1.86
2018-02-20T03:08:28.329Z,1.72
2018-02-20T03:13:29.885Z,1.91
2018-02-20T03:18:31.461Z,1.94
2018-02-20T03:23:33.768Z,1.77
2018-02-20T03:28:35.278Z,1.63
2018-02-20T03:33:37.413Z,1.46
2018-02-20T03:38:38.841Z,1.56
2018-02-20T03:43:40.167Z,1.49
2018-02-20T03:48:42.381Z,1.52
2018-02-20T03:53:44.504Z,1.44
2018-02-20T03:58:45.954Z,1.36
2018-02-20T04:03:47.357Z,1.24
2018-02-20T04:08:49.500Z,1.34
2018-02-20T04:13:50.932Z,1.18
2018-02-20T04:18:52.376Z,1.16
2018-02-20T04:23:53.958Z,1.31
2018-02-20T04:28:56.191Z,1.31
2018-02-20T04:33:57.765Z,1.36
2018-02-20T04:38:59.245Z,1.40
2018-02-20T04:44:01.543Z,1.29
2018-02-20T04:49:03.891Z,1.34
2018-02-20T04:54:05.428Z,1.36
2018-02-20T04:59:06.978Z,1.25
2018-02-20T05:04:08.542Z,1.26
2018-02-20T05:09:10.026Z,1.14
2018-02-20T05:14:11.595Z,1.16
2018-02-20T05:19:13.150Z,1.10
2018-02-20T05:24:14.632Z,0.89
2018-02-20T05:29:16.947Z,0.92
2018-02-20T05:34:19.307Z,0.78
2018-02-20T05:39:20.844Z,0.77
2018-02-20T05:44:23.211Z,0.73
2018-02-20T05:49:25.855Z,0.71
2018-02-20T05:54:27.420Z,0.74
2018-02-20T05:59:28.966Z,0.86
2018-02-20T06:04:31.371Z,0.75
2018-02-20T06:09:32.921Z,0.91
2018-02-20T06:14:35.102Z,0.88
2018-02-20T06:19:38.998Z,0.84
2018-02-20T06:24:41.001Z,0.89
2018-02-20T06:29:42.567Z,1.06
2018-02-20T06:34:44.096Z,1.09
2018-02-20T06:39:45.690Z,0.97
2018-02-20T06:44:47.260Z,0.88
2018-02-20T06:49:48.801Z,0.81
2018-02-20T06:54:50.417Z,1.07
2018-02-20T06:59:52.735Z,1.15
2018-02-20T07:04:54.252Z,1.03
2018-02-20T07:09:56.717Z,1.01
2018-02-20T07:14:58.300Z,1.04
2018-02-20T07:19:59.867Z,1.24
2018-02-20T07:25:01.355Z,1.28
2018-02-20T07:30:02.795Z,1.56
2018-02-20T07:35:04.801Z,1.55
2018-02-20T07:40:06.987Z,1.58
2018-02-20T07:45:08.560Z,1.75
2018-02-20T07:50:10.124Z,1.67
2018-02-20T07:55:11.702Z,1.94
2018-02-20T08:00:13.267Z,2.09
2018-02-20T08:05:14.806Z,2.13
2018-02-20T08:10:17.119Z,2.29
2018-02-20T08:15:18.861Z,2.57
2018-02-20T08:20:20.394Z,2.78
2018-02-20T08:25:21.947Z,2.91
2018-02-20T08:30:23.415Z,2.93
2018-02-20T08:35:24.779Z,2.99
2018-02-20T08:40:26.954Z,3.15
2018-02-20T08:45:28.313Z,3.36
2018-02-20T08:50:29.886Z,3.34
2018-02-20T08:55:32.154Z,3.44
2018-02-20T09:00:33.708Z,3.68
2018-02-20T09:05:35.262Z,3.88
2018-02-20T09:10:36.823Z,3.86
2018-02-20T09:15:38.208Z,3.73
2018-02-20T09:20:39.551Z,3.94
2018-02-20T09:25:41.649Z,4.25
2018-02-20T09:30:43.711Z,4.05
2018-02-20T09:35:45.102Z,4.46
2018-02-20T09:40:46.447Z,4.51
2018-02-20T09:45:48.523Z,4.81
2018-02-20T09:50:49.963Z,4.94
2018-02-20T09:55:51.330Z,4.80
2018-02-20T10:00:52.724Z,5.11
2018-02-20T10:05:54.865Z,5.01
2018-02-20T10:10:56.243Z,5.05
2018-02-20T10:15:57.619Z,5.24
2018-02-20T10:20:59.736Z,5.53
2018-02-20T10:26:01.849Z,5.53
2018-02-20T10:31:03.202Z,5.33
2018-02-20T10:36:04.564Z,5.76
2018-02-20T10:41:05.920Z,5.66
2018-02-20T10:46:07.273Z,5.69
2018-02-20T10:51:08.624Z,5.96
2018-02-20T10:56:09.959Z,6.07
2018-02-20T11:01:11.299Z,6.03
2018-02-20T11:06:12.740Z,6.20
2018-02-20T11:11:14.129Z,6.20
2018-02-20T11:16:15.510Z,6.28
2018-02-20T11:21:16.916Z,6.44
2018-02-20T11:26:18.996Z,6.65
2018-02-20T11:31:20.323Z,6.37
2018-02-20T11:36:21.655Z,6.81
2018-02-20T11:41:23.030Z,6.89
2018-02-20T11:46:24.387Z,6.88
2018-02-20T11:51:26.500Z,6.82
2018-02-20T11:56:28.583Z,6.96
2018-02-20T12:01:29.972Z,6.79
2018-02-20T12:06:31.344Z,6.67
2018-02-20T12:11:32.716Z,7.16
2018-02-20T12:16:34.232Z,7.33
2018-02-20T12:21:35.588Z,7.42
2018-02-20T12:26:36.978Z,7.52
2018-02-20T12:31:38.307Z,7.56
2018-02-20T12:36:39.652Z,7.45
2018-02-20T12:41:41.084Z,7.38
2018-02-20T12:46:42.402Z,7.67
2018-02-20T12:51:43.773Z,7.91
2018-02-20T12:56:45.123Z,8.23
2018-02-20T13:01:46.468Z,8.77
2018-02-20T13:06:48.547Z,8.25
2018-02-20T13:11:49.922Z,8.22
2018-02-20T13:16:51.304Z,7.99
2018-02-20T13:21:52.671Z,8.05
2018-02-20T13:26:54.044Z,8.18
2018-02-20T13:31:55.402Z,7.77
2018-02-20T13:36:56.766Z,7.79
2018-02-20T13:41:58.133Z,8.05
2018-02-20T13:46:59.522Z,8.03
2018-02-20T13:52:00.924Z,7.50
2018-02-20T13:57:02.280Z,7.35
2018-02-20T14:02:04.395Z,7.26
2018-02-20T14:07:06.504Z,7.16
2018-02-20T14:12:08.621Z,7.39
2018-02-20T14:17:09.948Z,7.89
2018-02-20T14:22:11.317Z,7.93
2018-02-20T14:27:12.716Z,7.71
2018-02-20T14:32:14.065Z,7.69
2018-02-20T14:37:15.447Z,7.17
2018-02-20T14:42:17.598Z,7.04
2018-02-20T14:47:18.980Z,6.76
2018-02-20T14:52:20.364Z,7.05
2018-02-20T14:57:21.822Z,7.04
2018-02-20T15:02:23.205Z,7.25
2018-02-20T15:07:25.390Z,7.47
2018-02-20T15:12:26.765Z,7.72
2018-02-20T15:17:28.173Z,7.02
2018-02-20T15:22:29.561Z,6.80
2018-02-20T15:27:30.955Z,6.73
2018-02-20T15:32:32.377Z,6.91
2018-02-20T15:37:33.791Z,6.92
2018-02-20T15:42:35.954Z,7.05
2018-02-20T15:47:37.331Z,7.18
2018-02-20T15:52:38.759Z,6.75
2018-02-20T15:57:40.156Z,6.87
2018-02-20T16:02:41.570Z,6.54
2018-02-20T16:07:42.909Z,6.71
2018-02-20T16:12:44.291Z,6.47
2018-02-20T16:17:45.644Z,6.43
2018-02-20T16:22:47.052Z,6.25
2018-02-20T16:27:48.415Z,6.19
2018-02-20T16:32:50.532Z,6.09
2018-02-20T16:37:51.904Z,5.91
2018-02-20T16:42:54.049Z,5.87
2018-02-20T16:47:55.410Z,5.87
2018-02-20T16:52:56.751Z,5.71
2018-02-20T16:57:58.251Z,5.82
2018-02-20T17:02:59.635Z,5.77
2018-02-20T17:08:00.980Z,5.50
2018-02-20T17:13:03.095Z,5.63
2018-02-20T17:18:04.481Z,5.60
2018-02-20T17:23:05.905Z,5.65
2018-02-20T17:28:07.365Z,5.48
2018-02-20T17:33:08.788Z,5.74
2018-02-20T17:38:10.177Z,5.86
2018-02-20T17:43:11.543Z,5.75
2018-02-20T17:48:12.960Z,5.60
2018-02-20T17:53:14.325Z,5.81
2018-02-20T17:58:15.695Z,5.82
2018-02-20T18:03:17.797Z,5.85
2018-02-20T18:08:19.263Z,5.31
2018-02-20T18:13:20.576Z,5.59
2018-02-20T18:18:22.644Z,5.51
2018-02-20T18:23:24.010Z,5.55
2018-02-20T18:28:25.375Z,5.52
2018-02-20T18:33:26.779Z,5.60
2018-02-20T18:38:28.196Z,5.77
2018-02-20T18:43:30.605Z,5.48
2018-02-20T18:48:32.033Z,5.55
2018-02-20T18:53:33.482Z,5.36
2018-02-20T18:58:34.874Z,5.27
2018-02-20T19:03:36.221Z,4.91
2018-02-20T19:08:37.619Z,4.99
2018-02-20T19:13:39.812Z,5.05
2018-02-20T19:18:41.537Z,5.13
2018-02-20T19:23:42.942Z,5.03
2018-02-20T19:28:44.280Z,4.94
2018-02-20T19:33:45.714Z,4.96
2018-02-20T19:38:47.123Z,4.91
2018-02-20T19:43:48.526Z,4.80
2018-02-20T19:48:49.956Z,4.99
2018-02-20T19:53:51.336Z,4.64
2018-02-20T19:58:52.838Z,4.51
2018-02-20T20:03:54.213Z,4.51
2018-02-20T20:08:55.680Z,4.40
2018-02-20T20:13:57.040Z,4.40
2018-02-20T20:18:59.121Z,4.35
2018-02-20T20:24:00.451Z,4.32
2018-02-20T20:29:01.863Z,4.30
2018-02-20T20:34:03.332Z,4.27
2018-02-20T20:39:04.744Z,4.13
2018-02-20T20:44:06.184Z,4.16
2018-02-20T20:49:07.527Z,4.14
2018-02-20T20:54:08.892Z,4.05
2018-02-20T20:59:10.364Z,4.14
2018-02-20T21:04:11.784Z,4.18
2018-02-20T21:09:13.296Z,4.23
2018-02-20T21:14:14.667Z,4.23
2018-02-20T21:19:16.013Z,4.32
2018-02-20T21:24:17.632Z,4.35
2018-02-20T21:29:19.238Z,4.33
2018-02-20T21:34:20.816Z,4.31
2018-02-20T21:39:22.919Z,4.31
2018-02-20T21:44:24.301Z,4.19
2018-02-20T21:49:26.417Z,4.09
2018-02-20T21:54:27.844Z,3.98
2018-02-20T21:59:29.286Z,3.98
2018-02-20T22:04:30.620Z,4.05
2018-02-20T22:09:31.976Z,3.97
2018-02-20T22:14:33.532Z,3.56
2018-02-20T22:19:34.871Z,3.52
2018-02-20T22:24:36.988Z,3.33
2018-02-20T22:29:39.052Z,3.09
2018-02-20T22:34:40.402Z,3.12
2018-02-20T22:39:41.986Z,3.06
2018-02-20T22:44:43.345Z,3.05
2018-02-20T22:49:44.673Z,3.02
2018-02-20T22:54:46.049Z,2.96
2018-02-20T22:59:47.519Z,2.73
2018-02-20T23:04:48.860Z,2.64
2018-02-20T23:09:50.225Z,2.75
2018-02-20T23:14:52.292Z,2.58
2018-02-20T23:19:53.647Z,2.51
2018-02-20T23:24:55.014Z,2.26
2018-02-20T23:29:56.356Z,2.43
2018-02-20T23:34:57.704Z,2.48
2018-02-20T23:39:59.170Z,2.53
2018-02-20T23:45:01.235Z,2.52
2018-02-20T23:50:02.581Z,2.45
2018-02-20T23:55:04.024Z,2.39
